Harrisburg, North Carolina
Current Conditions -  °F | °C
As of 8:52 AM on Thursday 23 Oct 2014 (Local Time) from KJQF Reporting Station
Clear Clear  
Wind Chill: 44°   Ceiling: Unl
Heat Index: 46°   Visibility: 10mi
Dew Point: 43°   Wind: 5mph
Humidity: 87%   Direction: 330°NNW
Pressure: 30.1"   Gusts: NA
Location:  35.32°N, 80.66°W
Report Text: KJQF 231252Z 33004KT 10SM CLR 08/06 A3010
Loading
Personal Weather Stations






























Interactive Weather Map
Tropical Storm Tracking
New forecast layout! Learn more

10-Day Weather Forecast

Advertisements
Track Severe Weather on mobile